createdAt,value
2023-05-03T00:00:08.875Z,7.62
2023-05-03T00:01:08.610Z,7.62
2023-05-03T00:02:08.733Z,7.62
2023-05-03T00:03:08.707Z,7.60
2023-05-03T00:04:08.569Z,7.54
2023-05-03T00:05:08.609Z,7.54
2023-05-03T00:06:08.576Z,7.57
2023-05-03T00:07:08.532Z,7.54
2023-05-03T00:08:08.515Z,7.50
2023-05-03T00:09:08.522Z,7.45
2023-05-03T00:10:08.487Z,7.55
2023-05-03T00:11:08.472Z,7.57
2023-05-03T00:12:08.459Z,7.48
2023-05-03T00:13:08.445Z,7.44
2023-05-03T00:14:08.430Z,7.58
2023-05-03T00:15:08.421Z,7.33
2023-05-03T00:16:08.404Z,7.51
2023-05-03T00:17:08.444Z,7.42
2023-05-03T00:18:08.723Z,7.48
2023-05-03T00:19:12.632Z,7.45
2023-05-03T00:20:09.406Z,7.36
2023-05-03T00:21:08.333Z,7.42
2023-05-03T00:22:08.329Z,7.32
2023-05-03T00:23:08.305Z,7.33
2023-05-03T00:24:08.298Z,7.37
2023-05-03T00:25:08.289Z,7.39
2023-05-03T00:26:08.269Z,7.44
2023-05-03T00:27:08.250Z,7.29
2023-05-03T00:28:08.240Z,7.44
2023-05-03T00:29:08.227Z,7.47
2023-05-03T00:30:08.218Z,7.42
2023-05-03T00:31:08.245Z,7.30
2023-05-03T00:32:08.189Z,7.33
2023-05-03T00:33:08.280Z,7.34
2023-05-03T00:34:08.185Z,7.39
2023-05-03T00:35:08.156Z,7.27
2023-05-03T00:36:08.144Z,7.30
2023-05-03T00:37:08.133Z,7.27
2023-05-03T00:38:08.111Z,7.29
2023-05-03T00:39:08.099Z,7.41
2023-05-03T00:40:08.085Z,7.26
2023-05-03T00:41:08.128Z,7.27
2023-05-03T00:42:08.208Z,7.36
2023-05-03T00:43:08.052Z,7.21
2023-05-03T00:44:08.036Z,7.26
2023-05-03T00:45:08.067Z,7.39
2023-05-03T00:46:16.067Z,7.21
2023-05-03T00:47:09.130Z,7.32
2023-05-03T00:48:08.245Z,7.36
2023-05-03T00:49:08.321Z,7.33
2023-05-03T00:50:07.988Z,7.32
2023-05-03T00:51:07.934Z,7.23
2023-05-03T00:52:07.929Z,7.32
2023-05-03T00:53:07.910Z,7.21
2023-05-03T00:54:07.900Z,7.26
2023-05-03T00:55:07.882Z,7.33
2023-05-03T00:56:07.876Z,7.16
2023-05-03T00:57:07.859Z,7.19
2023-05-03T00:58:07.846Z,7.12
2023-05-03T00:59:07.831Z,7.15
2023-05-03T01:00:07.821Z,7.19
2023-05-03T01:01:09.269Z,7.24
2023-05-03T01:02:08.050Z,7.21
2023-05-03T01:03:07.911Z,7.15
2023-05-03T01:04:07.839Z,7.15
2023-05-03T01:05:07.752Z,7.12
2023-05-03T01:06:07.833Z,7.11
2023-05-03T01:07:07.841Z,7.05
2023-05-03T01:08:07.708Z,7.11
2023-05-03T01:09:07.851Z,6.99
2023-05-03T01:10:07.685Z,7.15
2023-05-03T01:11:07.670Z,7.00
2023-05-03T01:12:07.822Z,6.99
2023-05-03T01:13:07.657Z,7.00
2023-05-03T01:14:07.640Z,6.93
2023-05-03T01:15:07.617Z,6.93
2023-05-03T01:16:07.674Z,7.04
2023-05-03T01:17:07.588Z,6.89
2023-05-03T01:18:07.729Z,6.87
2023-05-03T01:19:07.636Z,6.94
2023-05-03T01:20:07.947Z,6.96
2023-05-03T01:21:08.388Z,7.01
2023-05-03T01:22:07.732Z,6.89
2023-05-03T01:23:07.513Z,6.91
2023-05-03T01:24:07.875Z,6.93
2023-05-03T01:25:07.831Z,6.93
2023-05-03T01:26:07.678Z,6.86
2023-05-03T01:27:07.755Z,6.89
2023-05-03T01:28:07.870Z,6.82
2023-05-03T01:29:07.775Z,6.86
2023-05-03T01:30:07.416Z,6.81
2023-05-03T01:31:07.631Z,6.87
2023-05-03T01:32:07.538Z,6.72
2023-05-03T01:33:07.569Z,6.69
2023-05-03T01:34:07.373Z,6.78
2023-05-03T01:35:07.348Z,6.73
2023-05-03T01:36:07.340Z,6.79
2023-05-03T01:37:07.324Z,6.75
2023-05-03T01:38:07.328Z,6.68
2023-05-03T01:39:07.296Z,6.68
2023-05-03T01:40:07.292Z,6.71
2023-05-03T01:41:07.276Z,6.71
2023-05-03T01:42:07.278Z,6.60
2023-05-03T01:43:07.238Z,6.75
2023-05-03T01:44:07.242Z,6.68
2023-05-03T01:45:07.231Z,6.63
2023-05-03T01:46:07.362Z,6.64
2023-05-03T01:47:07.194Z,6.58
2023-05-03T01:48:07.239Z,6.65
2023-05-03T01:49:07.167Z,6.58
2023-05-03T01:50:07.150Z,6.61
2023-05-03T01:51:07.139Z,6.50
2023-05-03T01:52:07.126Z,6.50
2023-05-03T01:53:07.114Z,6.64
2023-05-03T01:54:07.117Z,6.48
2023-05-03T01:55:07.083Z,6.58
2023-05-03T01:56:07.068Z,6.61
2023-05-03T01:57:07.054Z,6.55
2023-05-03T01:58:07.045Z,6.53
2023-05-03T01:59:07.030Z,6.60
2023-05-03T02:00:07.034Z,6.53
2023-05-03T02:01:07.081Z,6.55
2023-05-03T02:02:06.992Z,6.48
2023-05-03T02:03:07.072Z,6.46
2023-05-03T02:04:07.069Z,6.58
2023-05-03T02:05:06.959Z,6.46
2023-05-03T02:06:06.995Z,6.48
2023-05-03T02:07:06.929Z,6.51
2023-05-03T02:08:06.913Z,6.46
2023-05-03T02:09:07.262Z,6.50
2023-05-03T02:10:06.933Z,6.54
2023-05-03T02:11:06.893Z,6.54
2023-05-03T02:12:06.857Z,6.54
2023-05-03T02:13:06.855Z,6.42
2023-05-03T02:14:06.836Z,6.45
2023-05-03T02:15:06.814Z,6.50
2023-05-03T02:16:06.803Z,6.48
2023-05-03T02:17:06.829Z,6.43
2023-05-03T02:18:06.911Z,6.35
2023-05-03T02:19:06.762Z,6.36
2023-05-03T02:20:06.744Z,6.38
2023-05-03T02:21:06.737Z,6.32
2023-05-03T02:22:06.713Z,6.28
2023-05-03T02:23:06.706Z,6.38
2023-05-03T02:24:06.719Z,6.28
2023-05-03T02:25:06.682Z,6.30
2023-05-03T02:26:06.696Z,6.25
2023-05-03T02:27:06.655Z,6.28
2023-05-03T02:28:06.646Z,6.19
2023-05-03T02:29:06.625Z,6.27
2023-05-03T02:30:06.891Z,6.21
2023-05-03T02:31:06.777Z,6.27
2023-05-03T02:32:06.588Z,6.14
2023-05-03T02:33:06.628Z,6.19
2023-05-03T02:34:06.911Z,6.21
2023-05-03T02:35:06.551Z,6.14
2023-05-03T02:36:06.554Z,6.28
2023-05-03T02:37:06.551Z,6.17
2023-05-03T02:38:06.533Z,6.24
2023-05-03T02:39:06.489Z,6.17
2023-05-03T02:40:06.527Z,6.30
2023-05-03T02:41:06.473Z,6.14
2023-05-03T02:42:06.471Z,6.25
2023-05-03T02:43:06.434Z,6.06
2023-05-03T02:44:06.431Z,6.21
2023-05-03T02:45:06.517Z,6.14
2023-05-03T02:46:06.424Z,6.08
2023-05-03T02:47:06.390Z,6.01
2023-05-03T02:48:06.395Z,6.16
2023-05-03T02:49:06.382Z,6.08
2023-05-03T02:50:06.578Z,6.01
2023-05-03T02:51:06.350Z,6.08
2023-05-03T02:52:06.319Z,6.06
2023-05-03T02:53:06.310Z,6.10
2023-05-03T02:54:06.289Z,6.02
2023-05-03T02:55:06.277Z,6.05
2023-05-03T02:56:06.268Z,6.01
2023-05-03T02:57:06.252Z,6.08
2023-05-03T02:58:06.276Z,6.11
2023-05-03T02:59:06.216Z,6.03
2023-05-03T03:00:06.487Z,5.96
2023-05-03T03:01:06.277Z,5.90
2023-05-03T03:02:06.291Z,5.95
2023-05-03T03:03:06.227Z,5.98
2023-05-03T03:04:06.298Z,5.95
2023-05-03T03:05:06.139Z,5.87
2023-05-03T03:06:06.138Z,5.84
2023-05-03T03:07:06.179Z,5.84
2023-05-03T03:08:06.099Z,5.88
2023-05-03T03:09:06.084Z,5.87
2023-05-03T03:10:06.080Z,5.80
2023-05-03T03:11:06.055Z,5.78
2023-05-03T03:12:06.045Z,5.81
2023-05-03T03:13:06.028Z,5.80
2023-05-03T03:14:06.037Z,5.74
2023-05-03T03:15:06.004Z,5.80
2023-05-03T03:16:06.025Z,5.77
2023-05-03T03:17:05.980Z,5.77
2023-05-03T03:18:06.053Z,5.73
2023-05-03T03:19:05.949Z,5.77
2023-05-03T03:20:05.937Z,5.77
2023-05-03T03:21:05.923Z,5.66
2023-05-03T03:22:05.923Z,5.67
2023-05-03T03:23:05.892Z,5.74
2023-05-03T03:24:05.976Z,5.81
2023-05-03T03:25:05.865Z,5.59
2023-05-03T03:26:05.859Z,5.63
2023-05-03T03:27:05.889Z,5.66
2023-05-03T03:28:05.924Z,5.62
2023-05-03T03:29:05.812Z,5.62
2023-05-03T03:30:06.197Z,5.63
2023-05-03T03:31:05.797Z,5.65
2023-05-03T03:32:05.833Z,5.60
2023-05-03T03:33:05.915Z,5.58
2023-05-03T03:34:05.750Z,5.56
2023-05-03T03:35:05.884Z,5.56
2023-05-03T03:36:05.726Z,5.49
2023-05-03T03:37:05.910Z,5.52
2023-05-03T03:38:05.696Z,5.56
2023-05-03T03:39:05.928Z,5.58
2023-05-03T03:40:05.707Z,5.42
2023-05-03T03:41:05.905Z,5.58
2023-05-03T03:42:05.656Z,5.60
2023-05-03T03:43:06.024Z,5.45
2023-05-03T03:44:05.609Z,5.55
2023-05-03T03:45:05.600Z,5.59
2023-05-03T03:46:05.612Z,5.45
2023-05-03T03:47:05.649Z,5.45
2023-05-03T03:48:05.593Z,5.63
2023-05-03T03:49:05.547Z,5.56
2023-05-03T03:50:05.849Z,5.58
2023-05-03T03:51:05.524Z,5.65
2023-05-03T03:52:05.509Z,5.65
2023-05-03T03:53:05.492Z,5.52
2023-05-03T03:54:05.489Z,5.69
2023-05-03T03:55:05.527Z,5.62
2023-05-03T03:56:05.451Z,5.67
2023-05-03T03:57:05.431Z,5.70
2023-05-03T03:58:05.446Z,5.66
2023-05-03T03:59:05.418Z,5.63
2023-05-03T04:00:05.599Z,5.66
2023-05-03T04:01:05.384Z,5.63
2023-05-03T04:02:05.410Z,5.58
2023-05-03T04:03:07.405Z,5.73
2023-05-03T04:04:05.449Z,5.67
2023-05-03T04:05:05.418Z,5.74
2023-05-03T04:06:05.376Z,5.67
2023-05-03T04:07:05.308Z,5.74
2023-05-03T04:08:05.309Z,5.75
2023-05-03T04:09:05.279Z,5.83
2023-05-03T04:10:05.648Z,5.70
2023-05-03T04:11:05.248Z,5.74
2023-05-03T04:12:05.238Z,5.78
2023-05-03T04:13:05.220Z,5.80
2023-05-03T04:14:05.209Z,5.87
2023-05-03T04:15:05.196Z,5.74
2023-05-03T04:16:05.185Z,5.81
2023-05-03T04:17:05.230Z,5.83
2023-05-03T04:18:05.239Z,5.83
2023-05-03T04:19:05.148Z,5.78
2023-05-03T04:20:05.299Z,5.80
2023-05-03T04:21:05.116Z,5.84
2023-05-03T04:22:05.100Z,5.69
2023-05-03T04:23:05.105Z,5.85
2023-05-03T04:24:05.076Z,5.78
2023-05-03T04:25:05.065Z,5.99
2023-05-03T04:26:05.521Z,5.84
2023-05-03T04:27:05.045Z,5.85
2023-05-03T04:28:05.021Z,5.90
2023-05-03T04:29:05.015Z,5.90
2023-05-03T04:30:05.295Z,5.92
2023-05-03T04:31:05.030Z,5.96
2023-05-03T04:32:04.968Z,5.96
2023-05-03T04:33:05.029Z,6.03
2023-05-03T04:34:04.979Z,5.98
2023-05-03T04:35:04.931Z,5.95
2023-05-03T04:36:04.912Z,6.11
2023-05-03T04:37:04.906Z,6.05
2023-05-03T04:38:04.884Z,6.10
2023-05-03T04:39:04.869Z,6.19
2023-05-03T04:40:05.140Z,6.11
2023-05-03T04:41:04.843Z,6.19
2023-05-03T04:42:04.829Z,6.17
2023-05-03T04:43:04.816Z,6.24
2023-05-03T04:44:04.907Z,6.25
2023-05-03T04:45:04.793Z,6.17
2023-05-03T04:46:04.802Z,6.27
2023-05-03T04:47:04.762Z,6.16
2023-05-03T04:48:04.796Z,6.33
2023-05-03T04:49:04.747Z,6.36
2023-05-03T04:50:05.094Z,6.33
2023-05-03T04:51:04.736Z,6.45
2023-05-03T04:52:04.702Z,6.46
2023-05-03T04:53:04.688Z,6.38
2023-05-03T04:54:04.672Z,6.43
2023-05-03T04:55:04.692Z,6.46
2023-05-03T04:56:04.660Z,6.43
2023-05-03T04:57:04.628Z,6.48
2023-05-03T04:58:04.625Z,6.51
2023-05-03T04:59:04.623Z,6.46
2023-05-03T05:00:04.884Z,6.46
2023-05-03T05:01:04.599Z,6.54
2023-05-03T05:02:04.637Z,6.48
2023-05-03T05:03:04.649Z,6.51
2023-05-03T05:04:04.635Z,6.58
2023-05-03T05:05:04.536Z,6.54
2023-05-03T05:06:04.604Z,6.60
2023-05-03T05:07:04.501Z,6.60
2023-05-03T05:08:04.492Z,6.60
2023-05-03T05:09:04.470Z,6.76
2023-05-03T05:10:04.717Z,6.72
2023-05-03T05:11:04.448Z,6.68
2023-05-03T05:12:04.587Z,6.63
2023-05-03T05:13:04.413Z,6.86
2023-05-03T05:14:04.401Z,6.79
2023-05-03T05:15:04.410Z,6.82
2023-05-03T05:16:04.382Z,6.79
2023-05-03T05:17:04.413Z,6.91
2023-05-03T05:18:04.413Z,6.91
2023-05-03T05:19:04.347Z,6.94
2023-05-03T05:20:04.730Z,6.83
2023-05-03T05:21:04.322Z,6.89
2023-05-03T05:22:04.337Z,6.90
2023-05-03T05:23:04.277Z,6.90
2023-05-03T05:24:04.471Z,6.83
2023-05-03T05:25:04.251Z,6.97
2023-05-03T05:26:04.238Z,6.96
2023-05-03T05:27:04.221Z,6.96
2023-05-03T05:28:04.218Z,7.04
2023-05-03T05:29:04.204Z,6.94
2023-05-03T05:30:04.512Z,6.94
2023-05-03T05:31:04.178Z,7.11
2023-05-03T05:32:04.338Z,7.08
2023-05-03T05:33:04.184Z,7.12
2023-05-03T05:34:04.137Z,7.18
2023-05-03T05:35:04.128Z,7.14
2023-05-03T05:36:04.114Z,7.12
2023-05-03T05:37:04.093Z,7.18
2023-05-03T05:38:04.108Z,7.30
2023-05-03T05:39:04.066Z,7.36
2023-05-03T05:40:04.370Z,7.32
2023-05-03T05:41:05.236Z,7.30
2023-05-03T05:42:04.028Z,7.36
2023-05-03T05:43:04.012Z,7.32
2023-05-03T05:44:03.999Z,7.42
2023-05-03T05:45:03.983Z,7.44
2023-05-03T05:46:03.970Z,7.42
2023-05-03T05:47:04.430Z,7.55
2023-05-03T05:48:04.000Z,7.54
2023-05-03T05:49:03.931Z,7.47
2023-05-03T05:50:09.561Z,7.47
2023-05-03T05:51:04.944Z,7.54
2023-05-03T05:52:03.891Z,7.44
2023-05-03T05:53:03.880Z,7.45
2023-05-03T05:54:03.895Z,7.48
2023-05-03T05:55:03.888Z,7.54
2023-05-03T05:56:03.861Z,7.67
2023-05-03T05:57:03.835Z,7.76
2023-05-03T05:58:03.854Z,7.73
2023-05-03T05:59:03.799Z,7.81
2023-05-03T06:00:04.005Z,7.74
2023-05-03T06:01:03.806Z,7.85
2023-05-03T06:02:03.794Z,7.92
2023-05-03T06:03:03.787Z,7.89
2023-05-03T06:04:03.739Z,7.96
2023-05-03T06:05:05.546Z,7.99
2023-05-03T06:06:03.752Z,7.84
2023-05-03T06:07:03.696Z,8.06
2023-05-03T06:08:03.685Z,8.00
2023-05-03T06:09:13.204Z,8.04
2023-05-03T06:10:05.024Z,8.09
2023-05-03T06:11:03.647Z,7.99
2023-05-03T06:12:03.632Z,8.06
2023-05-03T06:13:03.617Z,8.09
2023-05-03T06:14:03.931Z,8.22
2023-05-03T06:15:03.623Z,8.27
2023-05-03T06:16:03.590Z,8.21
2023-05-03T06:17:03.584Z,8.17
2023-05-03T06:18:03.595Z,8.17
2023-05-03T06:19:03.539Z,8.32
2023-05-03T06:20:03.838Z,8.28
2023-05-03T06:21:03.506Z,8.31
2023-05-03T06:22:03.496Z,8.21
2023-05-03T06:23:03.502Z,8.37
2023-05-03T06:24:03.480Z,8.28
2023-05-03T06:25:03.457Z,8.36
2023-05-03T06:26:03.472Z,8.36
2023-05-03T06:27:03.448Z,8.47
2023-05-03T06:28:03.440Z,8.39
2023-05-03T06:29:03.403Z,8.45
2023-05-03T06:30:03.657Z,8.27
2023-05-03T06:31:03.381Z,8.40
2023-05-03T06:32:03.359Z,8.63
2023-05-03T06:33:03.373Z,8.40
2023-05-03T06:34:03.347Z,8.63
2023-05-03T06:35:03.378Z,8.55
2023-05-03T06:36:03.312Z,8.73
2023-05-03T06:37:03.304Z,8.57
2023-05-03T06:38:03.288Z,8.71
2023-05-03T06:39:03.315Z,8.67
2023-05-03T06:40:03.480Z,8.85
2023-05-03T06:41:03.241Z,8.78
2023-05-03T06:42:03.308Z,8.96
2023-05-03T06:43:03.211Z,8.85
2023-05-03T06:44:03.351Z,8.94
2023-05-03T06:45:03.197Z,8.97
2023-05-03T06:46:03.224Z,8.88
2023-05-03T06:47:03.696Z,8.97
2023-05-03T06:48:03.248Z,8.96
2023-05-03T06:49:03.156Z,8.94
2023-05-03T06:50:03.302Z,8.97
2023-05-03T06:51:03.108Z,9.01
2023-05-03T06:52:03.095Z,9.01
2023-05-03T06:53:03.226Z,8.97
2023-05-03T06:54:03.072Z,9.06
2023-05-03T06:55:03.078Z,9.04
2023-05-03T06:56:03.340Z,9.08
2023-05-03T06:57:03.026Z,9.13
2023-05-03T06:58:03.039Z,9.08
2023-05-03T06:59:02.994Z,9.22
2023-05-03T07:00:03.158Z,9.17
2023-05-03T07:01:02.969Z,9.12
2023-05-03T07:02:02.994Z,9.20
2023-05-03T07:03:03.029Z,9.12
2023-05-03T07:04:03.048Z,9.26
2023-05-03T07:05:02.917Z,9.15
2023-05-03T07:06:02.946Z,9.35
2023-05-03T07:07:02.944Z,9.31
2023-05-03T07:08:02.876Z,9.42
2023-05-03T07:09:02.863Z,9.44
2023-05-03T07:10:03.151Z,9.38
2023-05-03T07:11:02.836Z,9.60
2023-05-03T07:12:02.823Z,9.53
2023-05-03T07:13:02.822Z,9.55
2023-05-03T07:14:02.822Z,9.56
2023-05-03T07:15:02.790Z,9.60
2023-05-03T07:16:03.675Z,9.77
2023-05-03T07:17:02.780Z,9.92
2023-05-03T07:18:02.805Z,9.95
2023-05-03T07:19:02.720Z,9.85
2023-05-03T07:20:02.914Z,9.75
2023-05-03T07:21:02.693Z,9.75
2023-05-03T07:22:02.693Z,9.98
2023-05-03T07:23:02.675Z,10.06
2023-05-03T07:24:02.673Z,10.02
2023-05-03T07:25:02.660Z,10.06
2023-05-03T07:26:02.636Z,10.14
2023-05-03T07:27:02.618Z,10.10
2023-05-03T07:28:02.616Z,10.13
2023-05-03T07:29:02.589Z,10.22
2023-05-03T07:30:02.947Z,10.22
2023-05-03T07:31:02.560Z,10.43
2023-05-03T07:32:02.554Z,10.36
2023-05-03T07:33:02.607Z,10.57
2023-05-03T07:34:02.545Z,10.62
2023-05-03T07:35:02.506Z,10.80
2023-05-03T07:36:02.498Z,10.75
2023-05-03T07:37:02.499Z,10.83
2023-05-03T07:38:02.474Z,10.81
2023-05-03T07:39:02.467Z,10.98
2023-05-03T07:40:02.667Z,11.02
2023-05-03T07:41:02.434Z,11.12
2023-05-03T07:42:02.425Z,11.26
2023-05-03T07:43:02.404Z,11.27
2023-05-03T07:44:02.424Z,11.24
2023-05-03T07:45:02.381Z,11.35
2023-05-03T07:46:02.822Z,11.45
2023-05-03T07:47:02.351Z,11.74
2023-05-03T07:48:02.350Z,12.13
2023-05-03T07:49:02.326Z,12.37
2023-05-03T07:50:02.535Z,12.46
2023-05-03T07:51:02.292Z,12.67
2023-05-03T07:52:02.290Z,12.95
2023-05-03T07:53:02.269Z,12.96
2023-05-03T07:54:02.254Z,12.81
2023-05-03T07:55:02.244Z,12.70
2023-05-03T07:56:02.229Z,12.80
2023-05-03T07:57:02.229Z,12.91
2023-05-03T07:58:02.204Z,12.92
2023-05-03T07:59:09.124Z,13.12
2023-05-03T08:00:03.418Z,13.17
2023-05-03T08:01:02.163Z,13.47
2023-05-03T08:02:02.294Z,13.87
2023-05-03T08:03:02.218Z,14.05
2023-05-03T08:04:02.370Z,14.26
2023-05-03T08:05:02.318Z,14.53
2023-05-03T08:06:02.139Z,14.63
2023-05-03T08:07:02.133Z,14.82
2023-05-03T08:08:02.072Z,15.11
2023-05-03T08:09:02.052Z,15.31
2023-05-03T08:10:02.282Z,15.30
2023-05-03T08:11:02.035Z,15.44
2023-05-03T08:12:02.019Z,15.53
2023-05-03T08:13:02.008Z,15.91
2023-05-03T08:14:02.007Z,16.26
2023-05-03T08:15:01.988Z,16.54
2023-05-03T08:16:02.004Z,16.70
2023-05-03T08:17:01.955Z,16.70
2023-05-03T08:18:02.002Z,16.73
2023-05-03T08:19:01.930Z,16.80
2023-05-03T08:20:02.389Z,17.15
2023-05-03T08:21:01.899Z,17.51
2023-05-03T08:22:01.900Z,17.76
2023-05-03T08:23:01.887Z,17.79
2023-05-03T08:24:01.861Z,17.74
2023-05-03T08:25:01.848Z,17.81
2023-05-03T08:26:01.838Z,17.89
2023-05-03T08:27:01.820Z,18.17
2023-05-03T08:28:01.810Z,18.35
2023-05-03T08:29:01.960Z,18.34
2023-05-03T08:30:02.033Z,18.50
2023-05-03T08:31:01.871Z,18.54
2023-05-03T08:32:01.757Z,18.57
2023-05-03T08:33:01.791Z,18.59
2023-05-03T08:34:01.876Z,18.41
2023-05-03T08:35:01.724Z,18.34
2023-05-03T08:36:01.880Z,18.28
2023-05-03T08:37:01.692Z,18.16
2023-05-03T08:38:01.686Z,18.32
2023-05-03T08:39:01.667Z,18.44
2023-05-03T08:40:01.829Z,18.65
2023-05-03T08:41:01.659Z,19.01
2023-05-03T08:42:01.630Z,19.12
2023-05-03T08:43:01.616Z,19.38
2023-05-03T08:44:01.599Z,19.78
2023-05-03T08:45:01.587Z,19.90
2023-05-03T08:46:01.585Z,19.97
2023-05-03T08:47:01.618Z,20.08
2023-05-03T08:48:02.045Z,20.33
2023-05-03T08:49:01.541Z,20.26
2023-05-03T08:50:01.858Z,20.15
2023-05-03T08:51:01.511Z,20.15
2023-05-03T08:52:01.522Z,20.35
2023-05-03T08:53:01.494Z,20.40
2023-05-03T08:54:01.467Z,20.50
2023-05-03T08:55:01.466Z,20.38
2023-05-03T08:56:01.464Z,20.33
2023-05-03T08:57:01.438Z,20.08
2023-05-03T08:58:01.442Z,20.31
2023-05-03T08:59:01.404Z,20.26
2023-05-03T09:00:01.577Z,20.50
2023-05-03T09:01:01.379Z,20.50
2023-05-03T09:02:01.393Z,20.61
2023-05-03T09:03:01.482Z,20.78
2023-05-03T09:04:01.423Z,20.33
2023-05-03T09:05:01.529Z,19.65
2023-05-03T09:06:01.403Z,19.61
2023-05-03T09:07:01.303Z,19.47
2023-05-03T09:08:01.296Z,19.28
2023-05-03T09:09:01.284Z,19.40
2023-05-03T09:10:01.267Z,19.64
2023-05-03T09:11:01.253Z,20.04
2023-05-03T09:12:01.238Z,20.44
2023-05-03T09:13:01.388Z,20.75
2023-05-03T09:14:01.219Z,20.88
2023-05-03T09:15:01.217Z,21.08
2023-05-03T09:16:01.242Z,21.19
2023-05-03T09:17:01.327Z,21.31
2023-05-03T09:18:01.177Z,21.52
2023-05-03T09:19:01.166Z,21.58
2023-05-03T09:20:01.506Z,21.53
2023-05-03T09:21:01.134Z,21.37
2023-05-03T09:22:01.341Z,21.40
2023-05-03T09:23:01.117Z,21.56
2023-05-03T09:24:01.336Z,21.53
2023-05-03T09:25:01.078Z,20.93
2023-05-03T09:26:01.086Z,20.76
2023-05-03T09:27:01.050Z,20.94
2023-05-03T09:28:01.043Z,21.26
2023-05-03T09:29:01.032Z,21.22
2023-05-03T09:30:01.199Z,21.52
2023-05-03T09:31:01.005Z,21.42
2023-05-03T09:32:01.198Z,20.63
2023-05-03T09:33:01.029Z,20.41
2023-05-03T09:34:00.980Z,20.19
2023-05-03T09:35:01.548Z,20.01
2023-05-03T09:36:00.939Z,20.16
2023-05-03T09:37:00.938Z,19.94
2023-05-03T09:38:00.988Z,19.72
2023-05-03T09:39:00.900Z,19.35
2023-05-03T09:40:01.019Z,19.10
2023-05-03T09:41:00.907Z,18.87
2023-05-03T09:42:00.874Z,18.69
2023-05-03T09:43:02.125Z,18.47
2023-05-03T09:44:00.850Z,18.39
2023-05-03T09:45:00.888Z,18.66
2023-05-03T09:46:00.842Z,18.79
2023-05-03T09:47:00.816Z,18.47
2023-05-03T09:48:00.824Z,18.20
2023-05-03T09:49:00.779Z,18.71
2023-05-03T09:50:00.776Z,18.93
2023-05-03T09:51:00.767Z,19.43
2023-05-03T09:52:00.731Z,19.92
2023-05-03T09:53:00.730Z,20.25
2023-05-03T09:54:00.761Z,20.66
2023-05-03T09:55:00.795Z,21.00
2023-05-03T09:56:00.685Z,21.16
2023-05-03T09:57:00.688Z,21.34
2023-05-03T09:58:00.661Z,21.77
2023-05-03T09:59:00.651Z,22.05
2023-05-03T10:00:00.634Z,22.42
2023-05-03T10:01:00.633Z,22.75
2023-05-03T10:02:00.609Z,23.21
2023-05-03T10:03:00.657Z,23.49
2023-05-03T10:04:00.648Z,23.44
2023-05-03T10:05:00.584Z,22.96
2023-05-03T10:06:00.557Z,22.88
2023-05-03T10:07:00.567Z,22.86
2023-05-03T10:08:00.536Z,22.91
2023-05-03T10:09:00.522Z,23.16
2023-05-03T10:10:00.578Z,23.60
2023-05-03T10:11:00.500Z,23.19
2023-05-03T10:12:00.481Z,22.23
2023-05-03T10:13:00.473Z,21.52
2023-05-03T10:14:00.459Z,21.82
2023-05-03T10:15:00.504Z,21.99
2023-05-03T10:16:00.595Z,22.26
2023-05-03T10:17:00.415Z,22.48
2023-05-03T10:18:00.428Z,22.75
2023-05-03T10:19:00.400Z,22.97
2023-05-03T10:20:00.393Z,23.32
2023-05-03T10:21:00.374Z,23.63
2023-05-03T10:22:00.362Z,23.72
2023-05-03T10:23:00.348Z,22.81
2023-05-03T10:24:00.340Z,23.03
2023-05-03T10:25:00.693Z,23.09
2023-05-03T10:26:00.342Z,22.48
2023-05-03T10:27:00.293Z,21.94
2023-05-03T10:28:00.278Z,21.82
2023-05-03T10:29:01.410Z,21.73
2023-05-03T10:30:00.280Z,21.85
2023-05-03T10:31:00.356Z,22.08
2023-05-03T10:32:00.230Z,22.27
2023-05-03T10:33:00.421Z,22.49
2023-05-03T10:34:00.235Z,22.74
2023-05-03T10:35:00.214Z,22.72
2023-05-03T10:36:00.397Z,22.17
2023-05-03T10:37:00.181Z,21.83
2023-05-03T10:38:00.160Z,21.77
2023-05-03T10:39:00.156Z,21.53
2023-05-03T10:40:00.165Z,21.21
2023-05-03T10:41:00.141Z,21.03
2023-05-03T10:42:00.124Z,21.08
2023-05-03T10:43:00.160Z,21.49
2023-05-03T10:44:00.106Z,21.98
2023-05-03T10:45:00.065Z,22.49
2023-05-03T10:46:00.150Z,22.38
2023-05-03T10:47:00.043Z,21.67
2023-05-03T10:48:00.175Z,21.12
2023-05-03T10:49:00.030Z,20.78
2023-05-03T10:50:00.041Z,20.93
2023-05-03T10:50:59.989Z,21.18
2023-05-03T10:51:59.977Z,21.61
2023-05-03T10:52:59.969Z,22.06
2023-05-03T10:53:59.961Z,21.98
2023-05-03T10:54:59.950Z,21.73
2023-05-03T10:55:59.931Z,21.61
2023-05-03T10:57:00.040Z,21.85
2023-05-03T10:57:59.933Z,21.99
2023-05-03T10:58:59.892Z,22.05
2023-05-03T10:59:59.881Z,22.11
2023-05-03T11:00:59.885Z,22.19
2023-05-03T11:02:00.045Z,22.14
2023-05-03T11:02:59.907Z,22.09
2023-05-03T11:03:59.877Z,22.17
2023-05-03T11:04:59.955Z,22.12
2023-05-03T11:05:59.808Z,21.90
2023-05-03T11:06:59.790Z,21.67
2023-05-03T11:07:59.779Z,21.70
2023-05-03T11:08:59.763Z,21.68
2023-05-03T11:09:59.749Z,21.06
2023-05-03T11:10:59.752Z,20.69
2023-05-03T11:11:59.729Z,20.56
2023-05-03T11:12:59.712Z,20.87
2023-05-03T11:13:59.806Z,21.01
2023-05-03T11:14:59.693Z,21.24
2023-05-03T11:15:59.745Z,21.42
2023-05-03T11:16:59.871Z,21.59
2023-05-03T11:17:59.668Z,21.83
2023-05-03T11:18:59.648Z,21.98
2023-05-03T11:19:59.631Z,22.06
2023-05-03T11:20:59.623Z,22.27
2023-05-03T11:21:59.611Z,22.17
2023-05-03T11:22:59.590Z,21.99
2023-05-03T11:23:59.579Z,21.51
2023-05-03T11:24:59.565Z,21.05
2023-05-03T11:25:59.551Z,21.30
2023-05-03T11:26:59.544Z,21.40
2023-05-03T11:28:00.552Z,21.63
2023-05-03T11:28:59.518Z,21.91
2023-05-03T11:29:59.582Z,22.15
2023-05-03T11:30:59.495Z,22.26
2023-05-03T11:31:59.561Z,22.38
2023-05-03T11:32:59.484Z,22.45
2023-05-03T11:33:59.450Z,22.61
2023-05-03T11:34:59.463Z,22.45
2023-05-03T11:35:59.429Z,22.02
2023-05-03T11:36:59.424Z,21.85
2023-05-03T11:37:59.402Z,21.51
2023-05-03T11:38:59.387Z,21.30
2023-05-03T11:39:59.372Z,20.98
2023-05-03T11:40:59.361Z,20.58
2023-05-03T11:41:59.348Z,20.79
2023-05-03T11:42:59.334Z,21.22
2023-05-03T11:44:14.503Z,21.63
2023-05-03T11:45:00.339Z,21.77
2023-05-03T11:45:59.462Z,22.01
2023-05-03T11:46:59.376Z,21.64
2023-05-03T11:47:59.323Z,21.38
2023-05-03T11:48:59.300Z,21.34
2023-05-03T11:49:59.305Z,21.64
2023-05-03T11:50:59.278Z,21.70
2023-05-03T11:51:59.244Z,21.89
2023-05-03T11:52:59.208Z,22.11
2023-05-03T11:54:01.259Z,22.15
2023-05-03T11:54:59.191Z,22.41
2023-05-03T11:55:59.171Z,22.29
2023-05-03T11:56:59.733Z,21.98
2023-05-03T11:57:59.150Z,21.79
2023-05-03T11:58:59.136Z,21.99
2023-05-03T11:59:59.129Z,22.49
2023-05-03T12:00:59.118Z,22.81
2023-05-03T12:01:59.126Z,22.91
2023-05-03T12:02:59.328Z,22.67
2023-05-03T12:03:59.460Z,22.19
2023-05-03T12:04:59.196Z,22.17
2023-05-03T12:05:59.374Z,21.99
2023-05-03T12:07:00.111Z,22.19
2023-05-03T12:07:59.783Z,22.38
2023-05-03T12:08:59.727Z,22.31
2023-05-03T12:10:13.772Z,22.48
2023-05-03T12:11:02.225Z,22.51
2023-05-03T12:12:01.484Z,22.57
2023-05-03T12:13:00.519Z,22.84
2023-05-03T12:13:59.128Z,23.29
2023-05-03T12:14:59.345Z,23.50
2023-05-03T12:16:10.839Z,22.97
2023-05-03T12:17:00.575Z,22.67
2023-05-03T12:18:00.257Z,22.30
2023-05-03T12:19:01.582Z,22.30
2023-05-03T12:20:31.938Z,22.46
2023-05-03T12:22:59.598Z,21.79
2023-05-03T12:24:01.324Z,21.89
2023-05-03T12:24:59.014Z,22.15
2023-05-03T12:26:00.963Z,22.52
2023-05-03T12:27:00.109Z,22.79
2023-05-03T12:28:18.017Z,23.06
2023-05-03T12:29:01.845Z,23.53
2023-05-03T12:30:00.744Z,23.74
2023-05-03T12:30:58.890Z,23.34
2023-05-03T12:31:58.792Z,23.19
2023-05-03T12:32:59.021Z,23.38
2023-05-03T12:35:02.050Z,23.16
2023-05-03T12:35:59.392Z,23.22
2023-05-03T12:36:59.262Z,23.21
2023-05-03T12:38:02.484Z,23.26
2023-05-03T12:39:01.863Z,22.82
2023-05-03T12:40:22.305Z,22.41
2023-05-03T12:40:59.986Z,22.05
2023-05-03T12:42:58.604Z,21.51
2023-05-03T12:44:00.489Z,21.58
2023-05-03T12:44:58.705Z,21.81
2023-05-03T12:46:25.200Z,21.83
2023-05-03T12:47:01.114Z,21.94
2023-05-03T12:47:58.614Z,22.12
2023-05-03T12:49:00.765Z,22.21
2023-05-03T12:50:00.046Z,22.31
2023-05-03T12:51:17.535Z,22.49
2023-05-03T12:52:23.230Z,22.45
2023-05-03T12:53:02.405Z,22.49
2023-05-03T12:54:01.769Z,22.48
2023-05-03T12:55:02.670Z,22.39
2023-05-03T12:55:58.677Z,22.38
2023-05-03T12:57:01.221Z,22.36
2023-05-03T12:58:26.725Z,22.39
2023-05-03T12:59:29.493Z,22.35
2023-05-03T13:00:03.307Z,22.26
2023-05-03T13:04:23.989Z,22.04
2023-05-03T13:05:00.365Z,21.82
2023-05-03T13:05:58.700Z,21.70
2023-05-03T13:06:59.887Z,21.61
2023-05-03T13:07:58.461Z,21.67
2023-05-03T13:09:02.767Z,21.86
2023-05-03T13:10:58.285Z,21.52
2023-05-03T13:11:58.287Z,21.27
2023-05-03T13:12:58.212Z,21.36
2023-05-03T13:13:58.205Z,21.27